< < Back
Terminal Aerodrome Forecast


Current Version              Previous Versions:   1  2  3  4  5  6  7  8  9  

Terminal Aerodrome Forecast

624
FTUS42 KILM 031139
TAFILM
TAF
KILM 031139Z 0312/0412 18007KT P6SM VCSH BKN035 OVC080
      TEMPO 0312/0316 3SM SHRA BKN025
     FM031600 19011G18KT P6SM VCSH SCT040 BKN080
     FM040000 19008KT P6SM BKN025 BKN120
     FM040700 18009KT 6SM -SHRA SCT025 SCT060 BKN120=

Latest METAR

181
SAUS70 KWBC 031700 RRL
MTRILM
METAR KILM 031653Z 18012G20KT 1 1/4SM R35/2800VP6000FT +RA BR BKN027
BKN036 OVC044 24/22 A2996 RMK AO2 LTG DSNT E AND SW RAB48
SLP144 P0007 T02440222


USA.gov is the U.S. government's official web portal to all federal, state and local government web resources and services.